createdAt,value
2018-02-06T20:41:58.423Z,41.28
2018-02-06T20:44:25.952Z,39.22
2018-02-06T20:46:53.537Z,41.55
2018-02-06T20:49:21.094Z,38.35
2018-02-06T20:51:48.689Z,42.33
2018-02-06T20:59:47.050Z,12.70
2018-02-06T21:02:14.666Z,11.23
2018-02-06T21:04:42.253Z,9.80
2018-02-06T21:07:10.274Z,10.43
2018-02-06T21:09:38.750Z,9.80
2018-02-06T21:15:01.722Z,29.10
2018-02-06T21:17:29.306Z,32.70
2018-02-06T21:19:57.028Z,32.90
2018-02-06T21:22:24.631Z,40.63
2018-02-06T21:24:53.010Z,46.28
2018-02-06T21:27:20.597Z,46.10
2018-02-06T21:29:48.938Z,48.92
2018-02-06T21:32:16.522Z,40.15
2018-02-06T21:34:44.122Z,47.97
2018-02-06T21:37:11.687Z,44.40
2018-02-06T21:39:39.220Z,47.67
2018-02-06T21:42:07.569Z,48.83
2018-02-06T21:44:35.801Z,48.22
2018-02-06T21:47:03.364Z,46.05
2018-02-06T21:49:30.968Z,44.15
2018-02-06T21:51:58.521Z,46.22
2018-02-06T21:54:26.269Z,47.05
2018-02-06T21:56:53.819Z,49.08
2018-02-06T21:59:21.412Z,47.20
2018-02-06T22:01:48.981Z,48.42
2018-02-06T22:04:16.629Z,47.75
2018-02-06T22:06:44.209Z,44.67
2018-02-06T22:09:11.770Z,50.33
2018-02-06T22:11:39.375Z,44.75
2018-02-06T22:14:07.891Z,46.13
2018-02-06T22:16:35.469Z,43.60
2018-02-06T22:19:03.013Z,44.20
2018-02-06T22:21:30.640Z,43.90
2018-02-06T22:23:58.363Z,49.70
2018-02-06T22:26:26.021Z,41.78
2018-02-06T22:28:53.737Z,45.05
2018-02-06T22:31:21.386Z,43.58
2018-02-06T22:33:49.887Z,41.72
2018-02-06T22:36:17.530Z,46.63
2018-02-06T22:38:45.160Z,44.00
2018-02-06T22:41:13.773Z,47.88
2018-02-06T22:43:42.137Z,45.85
2018-02-06T22:46:09.853Z,51.65
2018-02-06T22:48:37.412Z,47.30
2018-02-06T22:51:07.026Z,49.90
2018-02-06T22:53:36.807Z,48.38
2018-02-06T22:56:05.299Z,51.03
2018-02-06T22:58:32.911Z,48.10
2018-02-06T23:01:00.609Z,46.00
2018-02-06T23:03:28.253Z,46.05
2018-02-06T23:05:55.918Z,45.25
2018-02-06T23:08:23.538Z,47.03
2018-02-06T23:10:51.894Z,44.72
2018-02-06T23:13:19.721Z,42.75
2018-02-06T23:15:47.317Z,45.70
2018-02-06T23:18:14.908Z,42.95
2018-02-06T23:20:43.378Z,36.97
2018-02-06T23:23:10.992Z,39.00
2018-02-06T23:25:38.610Z,43.42
2018-02-06T23:28:06.241Z,40.12
2018-02-06T23:30:33.854Z,37.80
2018-02-06T23:33:02.230Z,45.67
2018-02-06T23:35:30.596Z,46.28
2018-02-06T23:37:58.581Z,40.58
2018-02-06T23:40:27.049Z,46.65
2018-02-06T23:42:55.414Z,42.20
2018-02-06T23:45:23.053Z,42.15
2018-02-06T23:47:50.592Z,44.83
2018-02-06T23:50:18.153Z,44.78
2018-02-06T23:52:45.725Z,45.90
2018-02-06T23:55:13.289Z,46.83
2018-02-06T23:57:40.849Z,42.47
